M I D A S
Marine Information and Data Acquisition System
Tripno 2104 of the Zeeleeuw from 2011-05-17 06:26:39 to 2011-05-17 15:57:41
Back to CruiseResearch ActivitiesStationsMapUnderway DataData graphs

EquipmentUnitsComment
TimeDGPSUTC
LatitudeDGPSDM.mWGS84
LongitudeDGPSDM.mWGS84
HeadingGyrodeg 
SOGDGPSknotsSpeed over ground
COGDGPSdegCourse over ground
DepthEcho soundermeters200 kHz
Missing or incorrect values are displayed as -999
Navigation data collected by the RV Zeeleeuw from 2011-05-17 06:31:10 to 2011-05-17 15:59:54
                                                                                    Next 1000 lines
Time Latitude Longitude Heading SOG COG Depth
2011-05-17 06:31:19 51°13.615 2°56.063 111.5 1.2 292 6.7
2011-05-17 06:31:24 51°13.616 2°56.061 112.1 1.2 293 6.7
2011-05-17 06:31:30 51°13.617 2°56.057 112.8 1.4 291 6.2
2011-05-17 06:31:34 51°13.617 2°56.055 113.2 1.7 294 5.7
2011-05-17 06:31:40 51°13.619 2°56.051 113.6 1.7 296 -999
2011-05-17 06:31:46 51°13.62 2°56.047 114.5 1.3 297 -999
2011-05-17 06:31:51 51°13.62 2°56.046 115.5 0.4 308 -999
2011-05-17 06:31:58 51°13.62 2°56.047 116 0.2 89 -999
2011-05-17 06:32:02 51°13.62 2°56.048 116.2 0.4 96 -999
2011-05-17 06:32:08 51°13.62 2°56.049 116.2 0.4 97 -999
2011-05-17 06:32:13 51°13.62 2°56.05 116 0.4 93 -999
2011-05-17 06:32:19 51°13.62 2°56.051 115.7 0.5 93 -999
2011-05-17 06:32:23 51°13.62 2°56.052 115.6 0.5 97 -999
2011-05-17 06:32:28 51°13.62 2°56.053 115.5 0.5 100 -999
2011-05-17 06:32:33 51°13.62 2°56.054 115.4 0.5 101 -999
2011-05-17 06:32:38 51°13.62 2°56.055 115.3 0.5 97 -999
2011-05-17 06:32:43 51°13.62 2°56.056 115.2 0.4 88 -999
2011-05-17 06:32:48 51°13.62 2°56.057 115.5 0.3 96 -999
2011-05-17 06:32:53 51°13.62 2°56.058 116.2 0.3 96 -999
2011-05-17 06:32:58 51°13.62 2°56.058 116.8 0.3 100 -999
2011-05-17 06:33:02 51°13.619 2°56.059 118 0.3 117 -999
2011-05-17 06:33:08 51°13.619 2°56.06 119.4 0.3 98 -999
2011-05-17 06:33:13 51°13.619 2°56.06 120.4 0.3 111 -999
2011-05-17 06:33:18 51°13.619 2°56.061 121.4 0.3 107 6.2
2011-05-17 06:33:23 51°13.619 2°56.062 122.3 0.3 122 6.5
2011-05-17 06:33:28 51°13.618 2°56.062 123.1 0.3 144 6.6
2011-05-17 06:33:32 51°13.618 2°56.062 124.4 0.3 134 6.6
2011-05-17 06:33:37 51°13.617 2°56.063 125.3 0.4 131 6.7
2011-05-17 06:33:42 51°13.617 2°56.064 125.8 0.4 129 6.6
2011-05-17 06:33:47 51°13.617 2°56.064 126.1 0.3 118 6.7
2011-05-17 06:33:52 51°13.616 2°56.065 126.3 0.4 132 6.8
2011-05-17 06:33:57 51°13.616 2°56.066 126.4 0.4 120 5.4
2011-05-17 06:34:02 51°13.616 2°56.066 126.6 0.4 137 4.8
2011-05-17 06:34:07 51°13.615 2°56.067 126.6 0.4 124 6.8
2011-05-17 06:34:12 51°13.615 2°56.067 126.7 0.4 134 6.8
2011-05-17 06:34:16 51°13.615 2°56.068 126.9 0.3 121 6.8
2011-05-17 06:34:21 51°13.615 2°56.068 127 0.3 123 6.8
2011-05-17 06:34:26 51°13.614 2°56.069 126.9 0.3 117 6.8
2011-05-17 06:34:31 51°13.614 2°56.07 126.7 0.1 104 6.8
2011-05-17 06:34:36 51°13.615 2°56.07 126.4 0.3 28 6.8
2011-05-17 06:34:41 51°13.615 2°56.07 125.2 0.1 -999 6.8
2011-05-17 06:34:46 51°13.615 2°56.07 124 -999 284 6.7
2011-05-17 06:34:50 51°13.615 2°56.07 123 0.1 68 6.8
2011-05-17 06:34:55 51°13.614 2°56.07 122.9 0.1 192 6.7
2011-05-17 06:35:00 51°13.614 2°56.07 122.9 -999 44 6.8
2011-05-17 06:35:05 51°13.614 2°56.07 122.5 0.1 202 6.7
2011-05-17 06:35:10 51°13.614 2°56.07 122 -999 168 6.8
2011-05-17 06:35:15 51°13.614 2°56.07 121.3 0.1 200 6.8
2011-05-17 06:35:20 51°13.614 2°56.07 120.7 -999 245 6.8
2011-05-17 06:35:24 51°13.614 2°56.07 119.9 0.1 186 6.8
2011-05-17 06:35:28 51°13.614 2°56.07 119.3 0.1 191 6.8
2011-05-17 06:35:34 51°13.614 2°56.07 118.6 0.1 193 6.9
2011-05-17 06:35:40 51°13.614 2°56.07 117.9 -999 203 6.9
2011-05-17 06:35:44 51°13.614 2°56.07 117.4 0.1 191 6.9
2011-05-17 06:35:50 51°13.614 2°56.07 116.6 0.1 195 6.9
2011-05-17 06:35:55 51°13.614 2°56.07 115.8 0.1 195 6.9
2011-05-17 06:35:59 51°13.614 2°56.07 115.2 0.1 201 6.9
2011-05-17 06:36:04 51°13.614 2°56.07 114.4 0.1 198 6.9
2011-05-17 06:36:09 51°13.613 2°56.069 113.3 0.1 203 6.9
2011-05-17 06:36:15 51°13.613 2°56.069 112.6 0.1 209 6.9
2011-05-17 06:36:20 51°13.613 2°56.069 111.9 0.1 200 7
2011-05-17 06:36:24 51°13.613 2°56.069 111.1 0.1 222 7
2011-05-17 06:36:29 51°13.613 2°56.069 110.2 0.1 251 7
2011-05-17 06:36:35 51°13.613 2°56.069 109.4 0.3 261 6.9
2011-05-17 06:36:40 51°13.614 2°56.067 109 0.8 292 6.9
2011-05-17 06:36:45 51°13.614 2°56.064 108.9 1.1 287 6.8
2011-05-17 06:36:50 51°13.615 2°56.06 109.1 1.8 285 6.7
2011-05-17 06:36:55 51°13.616 2°56.055 109.7 2.5 288 6
2011-05-17 06:37:01 51°13.618 2°56.047 110.2 3.1 291 -999
2011-05-17 06:37:06 51°13.619 2°56.04 111.1 3.5 291 -999
2011-05-17 06:37:12 51°13.622 2°56.03 111.9 3.9 292 -999
2011-05-17 06:37:17 51°13.625 2°56.022 112.6 4.3 294 -999
2011-05-17 06:37:23 51°13.628 2°56.01 113 4.7 295 -999
2011-05-17 06:37:28 51°13.63 2°56.001 113 4.6 294 -999
2011-05-17 06:37:33 51°13.633 2°55.992 112.6 4.4 293 -999
2011-05-17 06:37:38 51°13.635 2°55.983 111.9 4.2 293 -999
2011-05-17 06:37:43 51°13.637 2°55.975 110.8 4 291 -999
2011-05-17 06:37:48 51°13.639 2°55.967 109.7 3.7 289 -999
2011-05-17 06:37:53 51°13.64 2°55.961 108.5 3.2 291 -999
2011-05-17 06:37:58 51°13.641 2°55.956 107.4 2.1 290 -999
2011-05-17 06:38:03 51°13.642 2°55.955 107 1.1 305 8.6
2011-05-17 06:38:08 51°13.643 2°55.952 108.1 1.2 289 8.7
2011-05-17 06:38:13 51°13.644 2°55.949 110.5 1.7 300 8.7
2011-05-17 06:38:18 51°13.645 2°55.944 112.1 2.2 295 8.7
2011-05-17 06:38:22 51°13.646 2°55.939 112.6 2.7 294 8.7
2011-05-17 06:38:27 51°13.648 2°55.934 112.6 2.7 294 8.7
2011-05-17 06:38:33 51°13.649 2°55.928 112.1 2.3 292 -999
2011-05-17 06:38:38 51°13.65 2°55.925 111.2 1.8 295 -999
2011-05-17 06:38:43 51°13.651 2°55.923 111.1 1.3 303 -999
2011-05-17 06:38:48 51°13.652 2°55.92 112.8 1.2 293 -999
2011-05-17 06:38:53 51°13.653 2°55.918 114.3 1 310 -999
2011-05-17 06:38:58 51°13.653 2°55.916 115.8 1 298 8.4
2011-05-17 06:39:03 51°13.654 2°55.914 116.7 1.2 299 8.3
2011-05-17 06:39:08 51°13.655 2°55.911 117.1 1.6 298 8.3
2011-05-17 06:39:13 51°13.657 2°55.907 117.3 2 298 8.2
2011-05-17 06:39:18 51°13.658 2°55.902 117.4 2.4 300 8.2
2011-05-17 06:39:22 51°13.66 2°55.898 117.6 2.6 297 8
2011-05-17 06:39:28 51°13.662 2°55.891 118.6 2.8 302 -999
2011-05-17 06:39:33 51°13.664 2°55.886 119.7 2.8 300 -999
2011-05-17 06:39:38 51°13.666 2°55.881 120.7 2.8 301 -999
2011-05-17 06:39:43 51°13.668 2°55.875 121.6 2.8 302 -999
2011-05-17 06:39:48 51°13.67 2°55.87 122.3 2.8 305 -999
2011-05-17 06:39:53 51°13.672 2°55.865 122.7 2.7 304 -999
2011-05-17 06:39:58 51°13.675 2°55.86 122.9 2.7 306 -999
2011-05-17 06:40:03 51°13.677 2°55.855 122.9 2.7 305 4.7
2011-05-17 06:40:08 51°13.679 2°55.851 122.7 2.6 304 -999
2011-05-17 06:40:13 51°13.681 2°55.846 122.2 2.6 304 -999
2011-05-17 06:40:18 51°13.683 2°55.841 121.5 2.7 304 -999
2011-05-17 06:40:23 51°13.685 2°55.836 120.7 2.7 303 -999
2011-05-17 06:40:28 51°13.687 2°55.831 119.7 2.7 302 -999
2011-05-17 06:40:33 51°13.689 2°55.826 118.4 2.7 302 8.4
2011-05-17 06:40:38 51°13.691 2°55.821 117 2.7 301 -999
2011-05-17 06:40:43 51°13.693 2°55.815 115.7 2.8 300 -999
2011-05-17 06:40:48 51°13.695 2°55.81 114.3 2.8 298 -999
2011-05-17 06:40:53 51°13.697 2°55.804 112.8 2.8 297 -999
2011-05-17 06:40:58 51°13.698 2°55.799 111.1 2.8 296 -999
2011-05-17 06:41:03 51°13.7 2°55.793 109.6 2.9 294 -999
2011-05-17 06:41:08 51°13.701 2°55.787 108.2 2.9 293 -999
2011-05-17 06:41:13 51°13.703 2°55.781 106.1 2.8 290 -999
2011-05-17 06:41:18 51°13.704 2°55.775 104.3 2.8 288 -999
2011-05-17 06:41:23 51°13.705 2°55.77 102.3 2.6 288 -999
2011-05-17 06:41:28 51°13.706 2°55.764 100.7 2.5 285 -999
2011-05-17 06:41:33 51°13.707 2°55.759 98.9 2.4 284 -999
2011-05-17 06:41:38 51°13.707 2°55.754 97.3 2.1 284 -999
2011-05-17 06:41:43 51°13.708 2°55.75 96.1 1.8 282 -999
2011-05-17 06:41:48 51°13.708 2°55.747 94.7 1.4 287 11
2011-05-17 06:41:53 51°13.709 2°55.745 92.5 1 287 -999
2011-05-17 06:41:58 51°13.709 2°55.743 90.1 0.7 291 11
2011-05-17 06:42:03 51°13.71 2°55.742 87.9 0.6 301 11
2011-05-17 06:42:07 51°13.71 2°55.742 85.7 0.4 312 11
2011-05-17 06:42:12 51°13.71 2°55.742 83.6 0.3 355 11
2011-05-17 06:42:17 51°13.711 2°55.742 80.8 0.4 34 11
2011-05-17 06:42:22 51°13.712 2°55.743 77.9 0.7 45 11
2011-05-17 06:42:27 51°13.713 2°55.744 74.6 0.8 47 11
2011-05-17 06:42:32 51°13.713 2°55.745 70.6 0.8 41 10.9
2011-05-17 06:42:37 51°13.714 2°55.745 66.6 0.4 31 10.9
2011-05-17 06:42:41 51°13.714 2°55.745 63.6 0.2 288 11
2011-05-17 06:42:46 51°13.714 2°55.744 60.8 0.7 250 11
2011-05-17 06:42:51 51°13.713 2°55.742 57.6 1.1 237 11
2011-05-17 06:42:56 51°13.711 2°55.739 54.9 1.6 237 11
2011-05-17 06:43:01 51°13.71 2°55.735 52.5 2.1 231 11
2011-05-17 06:43:06 51°13.708 2°55.731 50.9 2.1 231 -999
2011-05-17 06:43:11 51°13.707 2°55.729 49.4 1 236 -999
2011-05-17 06:43:18 51°13.707 2°55.73 48.7 0.5 42 -999
2011-05-17 06:43:24 51°13.709 2°55.732 45 1.2 38 -999
2011-05-17 06:43:28 51°13.71 2°55.733 37.8 1.4 24 -999
2011-05-17 06:43:33 51°13.712 2°55.734 31.5 1.4 29 -999
2011-05-17 06:43:39 51°13.714 2°55.736 26.6 1.3 19 -999
2011-05-17 06:43:43 51°13.715 2°55.736 22.4 0.8 24 4.8
2011-05-17 06:43:48 51°13.715 2°55.737 20.4 0.5 19 4.8
2011-05-17 06:43:53 51°13.714 2°55.737 18.8 0.4 175 11
2011-05-17 06:43:58 51°13.713 2°55.736 16.5 1.1 189 11
2011-05-17 06:44:03 51°13.71 2°55.736 13.6 1.6 185 11.3
2011-05-17 06:44:08 51°13.707 2°55.735 11.4 2.2 186 11
2011-05-17 06:44:12 51°13.704 2°55.735 9.7 2.5 183 -999
2011-05-17 06:44:18 51°13.7 2°55.735 8.6 2.6 184 -999
2011-05-17 06:44:23 51°13.697 2°55.734 7.6 2.4 181 -999
2011-05-17 06:44:28 51°13.694 2°55.734 7.8 2.1 182 -999
2011-05-17 06:44:33 51°13.692 2°55.734 8.3 1.2 175 -999
2011-05-17 06:44:38 51°13.692 2°55.734 8.8 0.3 147 -999
2011-05-17 06:44:43 51°13.692 2°55.734 5.5 0.7 357 -999
2011-05-17 06:44:48 51°13.695 2°55.734 2.1 1.5 3 -999
2011-05-17 06:44:53 51°13.698 2°55.733 355.5 2.5 346 -999
2011-05-17 06:44:58 51°13.702 2°55.731 347.5 2.9 342 -999
2011-05-17 06:45:03 51°13.706 2°55.73 341.9 3.2 343 -999
2011-05-17 06:45:08 51°13.71 2°55.727 339.8 3.4 340 -999
2011-05-17 06:45:13 51°13.715 2°55.724 337.9 3.8 337 11
2011-05-17 06:45:18 51°13.72 2°55.72 336 4.2 336 10.5
2011-05-17 06:45:23 51°13.726 2°55.716 334.7 4.5 334 10.7
2011-05-17 06:45:28 51°13.732 2°55.711 334 4.7 334 10.4
2011-05-17 06:45:32 51°13.737 2°55.707 333.9 5 334 10.4
2011-05-17 06:45:37 51°13.743 2°55.702 333.9 5.3 333 10.6
2011-05-17 06:45:42 51°13.75 2°55.697 334.2 5.6 334 10.3
2011-05-17 06:45:47 51°13.758 2°55.691 334.6 6 333 10
2011-05-17 06:45:52 51°13.765 2°55.684 334.4 6.2 332 9.9
2011-05-17 06:45:57 51°13.773 2°55.678 333.9 6.5 332 9.8
2011-05-17 06:46:02 51°13.781 2°55.671 333.5 6.7 332 10
2011-05-17 06:46:07 51°13.79 2°55.664 333.4 6.9 333 9.9
2011-05-17 06:46:12 51°13.799 2°55.657 334.5 7 334 10
2011-05-17 06:46:16 51°13.806 2°55.651 335.2 7.2 334 9.8
2011-05-17 06:46:21 51°13.815 2°55.645 335.8 7.3 336 9.9
2011-05-17 06:46:26 51°13.824 2°55.638 336.9 7.5 336 9.9
2011-05-17 06:46:32 51°13.836 2°55.629 337.6 7.5 336 9.8
2011-05-17 06:46:37 51°13.846 2°55.623 337.6 7.6 336 9.7
2011-05-17 06:46:41 51°13.853 2°55.617 337.8 7.7 336 9.8
2011-05-17 06:46:47 51°13.865 2°55.609 338.1 7.7 337 9.6
2011-05-17 06:46:52 51°13.875 2°55.602 338.3 7.8 336 9.7
2011-05-17 06:46:56 51°13.883 2°55.597 338.3 7.8 337 9.7
2011-05-17 06:47:01 51°13.893 2°55.59 338.3 7.9 336 9.6
2011-05-17 06:47:06 51°13.903 2°55.582 337.8 7.9 336 9.6
2011-05-17 06:47:11 51°13.913 2°55.575 337.3 7.9 335 9.6
2011-05-17 06:47:16 51°13.923 2°55.567 336.2 7.9 334 9.6
2011-05-17 06:47:21 51°13.933 2°55.56 335.7 7.9 334 9.6
2011-05-17 06:47:25 51°13.941 2°55.554 336.1 7.9 335 9.6
2011-05-17 06:47:30 51°13.951 2°55.547 337.3 8 336 9.6
2011-05-17 06:47:35 51°13.961 2°55.539 337.6 8 336 9.6
2011-05-17 06:47:41 51°13.974 2°55.531 337.8 8 335 9.5
2011-05-17 06:47:46 51°13.984 2°55.523 337.3 8 335 9.5
2011-05-17 06:47:51 51°13.994 2°55.516 337.2 8 336 9.5
2011-05-17 06:47:56 51°14.004 2°55.509 337.2 8 335 9.5
2011-05-17 06:48:02 51°14.017 2°55.5 337 8 336 9.5
2011-05-17 06:48:06 51°14.025 2°55.495 337.5 8 336 9.4
2011-05-17 06:48:11 51°14.035 2°55.488 337.6 8 336 9.4
2011-05-17 06:48:16 51°14.045 2°55.48 337.1 8 335 9.5
2011-05-17 06:48:22 51°14.057 2°55.472 337 7.9 336 -999
2011-05-17 06:48:27 51°14.067 2°55.464 337.6 7.9 336 -999
2011-05-17 06:48:33 51°14.079 2°55.455 337.5 8 335 -999
2011-05-17 06:48:38 51°14.089 2°55.448 337.2 7.9 336 -999
2011-05-17 06:48:43 51°14.099 2°55.441 337.5 7.9 335 9.4
2011-05-17 06:48:48 51°14.109 2°55.434 337.5 7.9 335 9.4
2011-05-17 06:48:53 51°14.119 2°55.426 336.6 7.9 334 9.3
2011-05-17 06:48:58 51°14.128 2°55.419 336 7.8 335 9.3
2011-05-17 06:49:03 51°14.138 2°55.411 336 7.8 334 -999
2011-05-17 06:49:08 51°14.148 2°55.403 335.5 8 334 9.3
2011-05-17 06:49:13 51°14.158 2°55.396 335.4 8.2 334 -999
2011-05-17 06:49:18 51°14.168 2°55.387 335.5 8.5 334 9.3
2011-05-17 06:49:22 51°14.177 2°55.38 335.1 8.7 332 9.2
2011-05-17 06:49:29 51°14.192 2°55.367 334 9 332 -999
2011-05-17 06:49:34 51°14.203 2°55.358 334 9.1 333 9.3
2011-05-17 06:49:39 51°14.215 2°55.347 334.3 9.4 330 9.3
2011-05-17 06:49:43 51°14.224 2°55.339 332.9 9.5 331 9.3
2011-05-17 06:49:47 51°14.233 2°55.331 332.4 9.6 330 -999
2011-05-17 06:49:54 51°14.249 2°55.316 332 9.7 330 9.3
2011-05-17 06:49:58 51°14.259 2°55.307 331.3 9.8 329 -999
2011-05-17 06:50:03 51°14.27 2°55.296 330.9 9.8 330 -999
2011-05-17 06:50:08 51°14.282 2°55.284 331.1 9.9 329 9.2
2011-05-17 06:50:13 51°14.294 2°55.272 330.7 9.9 328 -999
2011-05-17 06:50:18 51°14.305 2°55.261 330 10.1 328 9.2
2011-05-17 06:50:23 51°14.317 2°55.248 329.6 10.2 327 -999
2011-05-17 06:50:28 51°14.33 2°55.237 328.9 10.3 328 9.2
2011-05-17 06:50:33 51°14.342 2°55.224 329.2 10.4 328 -999
2011-05-17 06:50:38 51°14.354 2°55.212 329.5 10.5 328 -999
2011-05-17 06:50:43 51°14.366 2°55.2 328.9 10.5 327 -999
2011-05-17 06:50:48 51°14.378 2°55.187 328.7 10.5 328 8.9
2011-05-17 06:50:53 51°14.391 2°55.175 329 10.6 330 9.2
2011-05-17 06:50:58 51°14.404 2°55.164 329.8 10.7 330 9
2011-05-17 06:51:03 51°14.416 2°55.152 330.4 10.7 330 -999
2011-05-17 06:51:08 51°14.43 2°55.14 330.5 10.8 330 9.3
2011-05-17 06:51:13 51°14.442 2°55.128 330.4 10.8 330 9.2
2011-05-17 06:51:18 51°14.455 2°55.115 329.8 10.8 328 9.4
2011-05-17 06:51:23 51°14.468 2°55.103 328.5 10.8 328 9.4
2011-05-17 06:51:28 51°14.481 2°55.09 328.2 10.9 329 -999
2011-05-17 06:51:33 51°14.493 2°55.077 328.2 11 325 -999
2011-05-17 06:51:38 51°14.506 2°55.063 327 11 325 -999
2011-05-17 06:51:43 51°14.519 2°55.049 326.6 11 324 10
2011-05-17 06:51:48 51°14.531 2°55.033 326.6 11.2 322 10.3
2011-05-17 06:51:53 51°14.542 2°55.015 326.3 11.4 315 10.4
2011-05-17 06:51:58 51°14.553 2°54.996 323.1 11.6 313 10.7
2011-05-17 06:52:03 51°14.564 2°54.978 320.6 11.7 316 11
2011-05-17 06:52:08 51°14.577 2°54.961 321.3 11.7 318 10.9
2011-05-17 06:52:13 51°14.589 2°54.945 323.8 11.8 321 10.8
2011-05-17 06:52:18 51°14.602 2°54.928 326.1 12 320 10.9
2011-05-17 06:52:23 51°14.615 2°54.912 327.4 12 323 10.7
2011-05-17 06:52:28 51°14.629 2°54.897 328.5 12.1 324 10.4
2011-05-17 06:52:32 51°14.639 2°54.884 329.5 12.1 323 10.6
2011-05-17 06:52:37 51°14.653 2°54.869 329.1 12.1 326 10.7
2011-05-17 06:52:42 51°14.667 2°54.853 330.9 12.2 325 10.4
2011-05-17 06:52:47 51°14.68 2°54.837 331 12.2 324 10.5
2011-05-17 06:52:52 51°14.694 2°54.821 330.3 12.3 324 10.7
2011-05-17 06:52:56 51°14.705 2°54.809 330.1 12.3 324 10.4
2011-05-17 06:53:02 51°14.721 2°54.788 329.8 12.4 321 10.4
2011-05-17 06:53:07 51°14.735 2°54.771 328.6 12.5 322 10.4
2011-05-17 06:53:12 51°14.748 2°54.753 327.8 12.6 319 10.3
2011-05-17 06:53:16 51°14.759 2°54.739 326.4 12.6 320 10.4
2011-05-17 06:53:21 51°14.773 2°54.721 326 12.6 320 10.2
2011-05-17 06:53:26 51°14.786 2°54.703 326.2 12.6 321 10.4
2011-05-17 06:53:31 51°14.799 2°54.686 326.8 12.5 322 10.2
2011-05-17 06:53:36 51°14.813 2°54.669 327.8 12.5 323 10.2
2011-05-17 06:53:41 51°14.827 2°54.653 328.3 12.6 323 10.2
2011-05-17 06:53:45 51°14.838 2°54.639 329 12.6 324 10.3
2011-05-17 06:53:51 51°14.855 2°54.62 329.3 12.6 325 10.4
2011-05-17 06:53:56 51°14.869 2°54.605 330.1 12.5 325 10.5
2011-05-17 06:54:01 51°14.884 2°54.589 330.5 12.5 325 10.1
2011-05-17 06:54:05 51°14.895 2°54.576 331 12.4 326 10.1
2011-05-17 06:54:11 51°14.912 2°54.558 330.8 12.5 326 10.1
2011-05-17 06:54:16 51°14.927 2°54.543 331.6 12.4 327 10.2
2011-05-17 06:54:21 51°14.94 2°54.527 331.8 12.4 325 10.2
2011-05-17 06:54:25 51°14.952 2°54.515 330.6 12.4 324 10.4
2011-05-17 06:54:30 51°14.966 2°54.498 330.2 12.4 324 10.3
2011-05-17 06:54:35 51°14.98 2°54.483 329 12.4 325 10.4
2011-05-17 06:54:40 51°14.994 2°54.466 328.9 12.4 324 10.4
2011-05-17 06:54:45 51°15.007 2°54.45 329 12.4 323 10.3
2011-05-17 06:54:49 51°15.018 2°54.436 327.9 12.5 321 10.1
2011-05-17 06:54:55 51°15.034 2°54.414 325.6 12.5 319 10.2
2011-05-17 06:55:00 51°15.046 2°54.396 324.9 12.5 318 10.1
2011-05-17 06:55:05 51°15.059 2°54.377 323.1 12.5 317 10.2
2011-05-17 06:55:09 51°15.069 2°54.361 322.2 12.5 316 10.1
2011-05-17 06:55:14 51°15.081 2°54.342 321.6 12.5 315 10
2011-05-17 06:55:20 51°15.096 2°54.319 321 12.4 316 10.4
2011-05-17 06:55:25 51°15.108 2°54.3 321.3 12.4 316 10.2
2011-05-17 06:55:30 51°15.12 2°54.28 321.6 12.4 315 -999
2011-05-17 06:55:35 51°15.133 2°54.261 322 12.4 317 10.2
2011-05-17 06:55:40 51°15.146 2°54.242 322.8 12.4 317 10.3
2011-05-17 06:55:45 51°15.158 2°54.224 322.8 12.4 316 10.3
2011-05-17 06:55:49 51°15.168 2°54.209 323.4 12.4 318 10.2
2011-05-17 06:55:55 51°15.183 2°54.186 323.4 12.4 317 10.4
2011-05-17 06:56:00 51°15.196 2°54.169 323.8 12.2 319 10
2011-05-17 06:56:05 51°15.209 2°54.151 325.2 12.2 319 10.3
2011-05-17 06:56:09 51°15.22 2°54.137 325.5 12.3 320 10.5
2011-05-17 06:56:15 51°15.236 2°54.117 326.6 12.3 321 10.2
2011-05-17 06:56:20 51°15.249 2°54.099 327.3 12.3 321 10.4
2011-05-17 06:56:25 51°15.262 2°54.083 327.7 12.2 322 10.4
2011-05-17 06:56:30 51°15.276 2°54.066 328.6 12.3 322 10.3
2011-05-17 06:56:35 51°15.289 2°54.049 329 12.3 321 10.3
2011-05-17 06:56:40 51°15.302 2°54.031 328.2 12.3 320 10.2
2011-05-17 06:56:45 51°15.315 2°54.014 327.6 12.4 321 10.3
2011-05-17 06:56:49 51°15.326 2°54 327.8 12.4 320 10.4
2011-05-17 06:56:55 51°15.342 2°53.978 326.9 12.4 320 10.4
2011-05-17 06:57:00 51°15.355 2°53.961 326.4 12.5 319 10.3
2011-05-17 06:57:05 51°15.368 2°53.944 326 12.2 321 10.7
2011-05-17 06:57:09 51°15.378 2°53.929 326.8 12.3 320 10.5
2011-05-17 06:57:14 51°15.391 2°53.912 326.7 12.3 320 10.6
2011-05-17 06:57:20 51°15.407 2°53.89 326.4 12.4 319 10.6
2011-05-17 06:57:25 51°15.42 2°53.872 326.3 12.4 319 10.6
2011-05-17 06:57:30 51°15.433 2°53.854 326.1 12.4 320 10.6
2011-05-17 06:57:34 51°15.443 2°53.84 326.7 12.4 320 10.5
2011-05-17 06:57:40 51°15.459 2°53.819 327.5 12.4 321 10.4
2011-05-17 06:57:45 51°15.473 2°53.802 327.6 12.4 322 10.3
2011-05-17 06:57:49 51°15.484 2°53.789 329 12.5 323 10.2
2011-05-17 06:57:55 51°15.501 2°53.769 329.1 12.5 322 10.3
2011-05-17 06:58:00 51°15.515 2°53.753 329.6 12.5 323 10.4
2011-05-17 06:58:05 51°15.528 2°53.736 329.6 12.5 323 10.4
2011-05-17 06:58:09 51°15.539 2°53.722 329.5 12.5 322 10.1
2011-05-17 06:58:15 51°15.555 2°53.702 329.1 12.5 322 10.2
2011-05-17 06:58:20 51°15.569 2°53.685 328.9 12.5 321 10.2
2011-05-17 06:58:25 51°15.583 2°53.668 329 12.6 322 10.3
2011-05-17 06:58:30 51°15.597 2°53.651 329.7 12.5 322 10.3
2011-05-17 06:58:35 51°15.611 2°53.635 330 12.5 323 10.5
2011-05-17 06:58:40 51°15.625 2°53.618 330.3 12.5 324 10.6
2011-05-17 06:58:45 51°15.639 2°53.603 331.5 12.4 325 10.3
2011-05-17 06:58:50 51°15.654 2°53.588 332.7 12.4 327 10.8
2011-05-17 06:58:55 51°15.668 2°53.573 334 12.4 327 10.8
2011-05-17 06:59:00 51°15.683 2°53.558 334.7 12.5 328 10.5
2011-05-17 06:59:05 51°15.698 2°53.545 335.4 12.4 330 10.9
2011-05-17 06:59:09 51°15.709 2°53.533 335.8 12.4 329 10.9
2011-05-17 06:59:15 51°15.727 2°53.517 337.4 12.4 330 11
2011-05-17 06:59:20 51°15.742 2°53.503 336.7 12.4 330 11.1
2011-05-17 06:59:25 51°15.757 2°53.489 337.1 12.4 331 11.3
2011-05-17 06:59:29 51°15.769 2°53.478 337.9 12.5 330 10.8
2011-05-17 06:59:35 51°15.787 2°53.462 337.9 12.4 331 10.7
2011-05-17 06:59:40 51°15.802 2°53.449 338.2 12.4 331 11.3
2011-05-17 06:59:45 51°15.817 2°53.435 337.8 12.4 330 11.1
2011-05-17 06:59:49 51°15.829 2°53.424 337.6 12.4 330 11.3
2011-05-17 06:59:54 51°15.844 2°53.41 337.8 12.4 330 11.3
2011-05-17 07:00:00 51°15.861 2°53.394 336.8 12.4 330 11.4
2011-05-17 07:00:05 51°15.876 2°53.38 336.4 12.4 330 11
2011-05-17 07:00:09 51°15.888 2°53.369 336.5 12.3 330 11.4
2011-05-17 07:00:15 51°15.906 2°53.353 336.8 12.3 330 11.5
2011-05-17 07:00:20 51°15.92 2°53.339 337.4 12.3 330 10.9
2011-05-17 07:00:25 51°15.935 2°53.325 336.6 12.3 329 10.7
2011-05-17 07:00:29 51°15.947 2°53.314 336.5 12.3 329 10.8
2011-05-17 07:00:35 51°15.964 2°53.297 336.5 12.3 329 10.7
2011-05-17 07:00:40 51°15.979 2°53.283 336.9 12.4 329 10.8
2011-05-17 07:00:45 51°15.993 2°53.27 336.8 12.2 331 10.6
2011-05-17 07:00:49 51°16.005 2°53.258 336.5 12.3 329 10.9
2011-05-17 07:00:55 51°16.022 2°53.241 336.8 12.3 329 10.7
2011-05-17 07:01:00 51°16.037 2°53.227 335.4 12.4 327 10.7
2011-05-17 07:01:05 51°16.051 2°53.212 335.7 12.3 327 10.8
2011-05-17 07:01:09 51°16.063 2°53.2 334.7 12.4 327 10.7
2011-05-17 07:01:15 51°16.08 2°53.182 334 12.4 326 10.8
2011-05-17 07:01:20 51°16.094 2°53.167 334.1 12.3 328 11
2011-05-17 07:01:25 51°16.109 2°53.152 334.9 12.4 327 11.1
2011-05-17 07:01:29 51°16.12 2°53.141 335.8 12.4 328 11
2011-05-17 07:01:35 51°16.138 2°53.124 336.6 12.3 329 11
2011-05-17 07:01:40 51°16.152 2°53.11 336.5 12.3 328 11.1
2011-05-17 07:01:45 51°16.167 2°53.096 337.5 12.3 330 11
2011-05-17 07:01:49 51°16.179 2°53.085 337.1 12.3 329 11.1
2011-05-17 07:01:54 51°16.194 2°53.071 337.5 12.3 331 11.2
2011-05-17 07:02:00 51°16.211 2°53.055 338.5 12.2 332 10.9
2011-05-17 07:02:05 51°16.226 2°53.043 339.3 12.3 332 11
2011-05-17 07:02:09 51°16.238 2°53.032 339.3 12.2 332 11
2011-05-17 07:02:14 51°16.253 2°53.02 339.6 12.2 333 10.9
2011-05-17 07:02:19 51°16.268 2°53.008 340.3 12.2 334 11
2011-05-17 07:02:25 51°16.287 2°52.994 341 12.2 335 11.2
2011-05-17 07:02:29 51°16.299 2°52.985 341 12.2 336 11
2011-05-17 07:02:34 51°16.315 2°52.974 342.4 12.3 336 11
2011-05-17 07:02:39 51°16.33 2°52.963 342 12.2 337 11.1
2011-05-17 07:02:45 51°16.349 2°52.95 342.3 12.2 337 10.9
2011-05-17 07:02:49 51°16.361 2°52.941 342.6 12.2 336 11.1
2011-05-17 07:02:54 51°16.377 2°52.931 342.7 12.2 338 11
2011-05-17 07:02:59 51°16.392 2°52.92 342.6 12.2 338 11.2
2011-05-17 07:03:05 51°16.411 2°52.908 343 12.2 337 10.9
2011-05-17 07:03:09 51°16.424 2°52.9 342.6 12.1 338 10.8
2011-05-17 07:03:14 51°16.439 2°52.89 342.9 12.2 337 11.1
2011-05-17 07:03:20 51°16.458 2°52.877 342.6 12.1 337 10.9
2011-05-17 07:03:25 51°16.473 2°52.867 342.5 12.2 337 11.1
2011-05-17 07:03:29 51°16.486 2°52.858 342.1 12.1 337 10.8
2011-05-17 07:03:34 51°16.501 2°52.848 342 12.1 336 11
2011-05-17 07:03:40 51°16.52 2°52.835 341.9 12.1 337 10.8
2011-05-17 07:03:45 51°16.535 2°52.824 341.8 12.1 337 10.6
2011-05-17 07:03:49 51°16.547 2°52.815 341.9 12.1 336 10.6
2011-05-17 07:03:54 51°16.563 2°52.805 341.5 12.1 337 10.6
2011-05-17 07:03:59 51°16.578 2°52.794 341.3 12.1 335 10.4
2011-05-17 07:04:05 51°16.596 2°52.781 341.4 12.1 337 10.6
2011-05-17 07:04:09 51°16.608 2°52.772 341.3 12.1 335 10.5
2011-05-17 07:04:14 51°16.624 2°52.761 341.3 12 337 10.4
2011-05-17 07:04:20 51°16.642 2°52.748 340.8 12.1 335 10.3
2011-05-17 07:04:25 51°16.657 2°52.738 341.4 11.9 338 10.1
2011-05-17 07:04:29 51°16.669 2°52.729 341.2 12 335 10
2011-05-17 07:04:35 51°16.688 2°52.716 341.7 12.1 336 9.8
2011-05-17 07:04:39 51°16.7 2°52.707 340.9 12 336 9.9
2011-05-17 07:04:45 51°16.719 2°52.695 341.4 11.9 337 9.3
2011-05-17 07:04:49 51°16.731 2°52.687 341.2 11.9 336 9.4
2011-05-17 07:04:54 51°16.746 2°52.677 341.9 11.8 337 8.8
2011-05-17 07:04:59 51°16.761 2°52.665 341.4 11.7 335 9.1
2011-05-17 07:05:04 51°16.776 2°52.655 340.7 11.7 336 9
2011-05-17 07:05:09 51°16.79 2°52.644 340.8 11.7 337 9.1
2011-05-17 07:05:14 51°16.805 2°52.636 344 11.7 342 9
2011-05-17 07:05:20 51°16.824 2°52.626 345.8 11.6 343 8.7
2011-05-17 07:05:25 51°16.839 2°52.62 348.5 11.6 344 8.8
2011-05-17 07:05:29 51°16.852 2°52.615 349.9 11.5 346 8.9
2011-05-17 07:05:35 51°16.871 2°52.608 350.9 11.6 347 8.8
2011-05-17 07:05:40 51°16.886 2°52.603 352.7 11.6 348 8.8
2011-05-17 07:05:45 51°16.902 2°52.599 354.2 11.6 351 9.1
2011-05-17 07:05:49 51°16.915 2°52.596 355.9 11.6 352 8.7
2011-05-17 07:05:54 51°16.931 2°52.592 356.5 11.6 353 9.4
2011-05-17 07:06:00 51°16.95 2°52.589 357.4 11.5 353 9.1
2011-05-17 07:06:05 51°16.965 2°52.585 357.3 11.5 351 9.1
2011-05-17 07:06:09 51°16.978 2°52.582 357.3 11.5 353 9.3
2011-05-17 07:06:13 51°16.991 2°52.579 357.2 11.5 352 8.9
2011-05-17 07:06:20 51°17.013 2°52.574 356.9 11.5 352 8.9
2011-05-17 07:06:25 51°17.029 2°52.57 356.9 11.6 351 8.9
2011-05-17 07:06:29 51°17.042 2°52.567 356.8 11.5 350 8.8
2011-05-17 07:06:34 51°17.058 2°52.564 356.2 11.5 352 8.8
2011-05-17 07:06:39 51°17.073 2°52.559 356.5 11.5 350 8.8
2011-05-17 07:06:45 51°17.092 2°52.554 356.5 11.5 351 8.7
2011-05-17 07:06:49 51°17.105 2°52.551 356.4 11.6 351 8.9
2011-05-17 07:06:53 51°17.117 2°52.548 355.6 11.5 350 8.9
2011-05-17 07:06:59 51°17.136 2°52.542 355.7 11.5 350 8.9
2011-05-17 07:07:05 51°17.155 2°52.537 355.1 11.6 350 9
2011-05-17 07:07:09 51°17.168 2°52.532 354.8 11.7 346 9
2011-05-17 07:07:15 51°17.187 2°52.526 352.8 11.7 349 8.9
2011-05-17 07:07:19 51°17.199 2°52.521 353.1 11.7 345 8.8
2011-05-17 07:07:24 51°17.215 2°52.515 352.8 11.7 349 9.3
2011-05-17 07:07:29 51°17.231 2°52.51 352.6 11.7 347 9
2011-05-17 07:07:34 51°17.247 2°52.504 352.9 11.7 348 9
2011-05-17 07:07:40 51°17.266 2°52.498 353 11.7 348 9.2
2011-05-17 07:07:45 51°17.282 2°52.494 353.2 11.5 352 9.3
2011-05-17 07:07:49 51°17.294 2°52.494 357.9 11.5 359 9.4
2011-05-17 07:07:55 51°17.313 2°52.495 3.1 11.4 3 9.4
2011-05-17 07:08:00 51°17.329 2°52.5 9.3 11.2 13 9.4
2011-05-17 07:08:05 51°17.344 2°52.506 15.6 11.3 14 9.4
2011-05-17 07:08:09 51°17.356 2°52.512 17.6 11.3 17 9.6
2011-05-17 07:08:14 51°17.37 2°52.521 19.8 11.3 20 9.5
2011-05-17 07:08:20 51°17.388 2°52.53 21.6 11.3 19 9.6
2011-05-17 07:08:25 51°17.403 2°52.54 22.6 11.3 22 9.5
2011-05-17 07:08:29 51°17.415 2°52.546 23.4 11.3 20 9.3
2011-05-17 07:08:33 51°17.426 2°52.554 24 11.3 27 9.6
2011-05-17 07:08:40 51°17.447 2°52.568 25.1 11.4 20 9.4
2011-05-17 07:08:45 51°17.46 2°52.58 26.4 11.3 27 9.7
2011-05-17 07:08:49 51°17.472 2°52.587 26.2 11.3 26 9.6
2011-05-17 07:08:54 51°17.486 2°52.598 27.7 11.3 25 9.4
2011-05-17 07:09:00 51°17.503 2°52.612 29.1 11.4 28 9.6
2011-05-17 07:09:05 51°17.517 2°52.621 26.6 11.3 22 9.3
2011-05-17 07:09:09 51°17.528 2°52.631 27.8 11.2 27 9.4
2011-05-17 07:09:13 51°17.54 2°52.639 27.5 11.2 26 9.6
2011-05-17 07:09:19 51°17.556 2°52.652 27.9 11.2 27 9.4
2011-05-17 07:09:24 51°17.57 2°52.663 28.4 11.2 24 9.4
2011-05-17 07:09:29 51°17.584 2°52.675 28.4 11.3 29 9.1
2011-05-17 07:09:35 51°17.601 2°52.688 29.5 11.4 25 9.6
2011-05-17 07:09:39 51°17.613 2°52.697 27.7 11.3 28 9.4
2011-05-17 07:09:44 51°17.626 2°52.71 30.2 11.4 29 9.6
2011-05-17 07:09:49 51°17.64 2°52.721 29.4 11.5 28 9.7
2011-05-17 07:09:54 51°17.654 2°52.735 30.9 11.4 33 9.4
2011-05-17 07:10:00 51°17.669 2°52.751 33.9 11.4 33 9.4
2011-05-17 07:10:05 51°17.683 2°52.766 34.9 11.5 34 9.6
2011-05-17 07:10:09 51°17.694 2°52.776 34.7 11.4 35 9.4
2011-05-17 07:10:14 51°17.706 2°52.792 36.9 11.4 36 9.4
2011-05-17 07:10:20 51°17.722 2°52.809 37.1 11.4 35 9.6
2011-05-17 07:10:25 51°17.734 2°52.824 36.6 11.4 36 9.4
2011-05-17 07:10:29 51°17.744 2°52.836 37.1 11.3 37 9.5
2011-05-17 07:10:34 51°17.757 2°52.851 37.7 11.3 38 9.4
2011-05-17 07:10:39 51°17.769 2°52.867 39 11.4 39 9.4
2011-05-17 07:10:45 51°17.784 2°52.887 40.4 11.4 40 9.5
2011-05-17 07:10:49 51°17.793 2°52.901 42.2 11.3 43 9.6
2011-05-17 07:10:54 51°17.804 2°52.918 43 11.3 42 9.3
2011-05-17 07:11:00 51°17.818 2°52.938 43.1 11.4 44 9.5
2011-05-17 07:11:05 51°17.83 2°52.955 43.4 11.3 41 9
2011-05-17 07:11:09 51°17.84 2°52.968 42.4 11.4 41 9.4
2011-05-17 07:11:13 51°17.849 2°52.981 41.3 11.4 43 9.4
2011-05-17 07:11:19 51°17.863 2°53.001 42 11.4 37 9.7
2011-05-17 07:11:25 51°17.879 2°53.02 39.1 11.4 40 9.3
2011-05-17 07:11:29 51°17.888 2°53.033 39.6 11.4 39 9.5
2011-05-17 07:11:35 51°17.903 2°53.051 39.9 11.5 39 9.5
2011-05-17 07:11:39 51°17.913 2°53.064 39.7 11.5 38 9.5
2011-05-17 07:11:44 51°17.926 2°53.079 39.4 11.5 37 9.5
2011-05-17 07:11:49 51°17.938 2°53.094 37.8 11.4 37 9.6
2011-05-17 07:11:54 51°17.951 2°53.11 38.9 11.4 38 9.8
2011-05-17 07:12:00 51°17.967 2°53.127 37.9 11.4 36 9.6
2011-05-17 07:12:05 51°17.979 2°53.143 38.1 11.4 38 9.7
2011-05-17 07:12:09 51°17.989 2°53.155 38.2 11.4 38 9.9
2011-05-17 07:12:15 51°18.004 2°53.174 39 11.4 39 10
2011-05-17 07:12:20 51°18.016 2°53.19 39.9 11.3 42 9.5
2011-05-17 07:12:25 51°18.027 2°53.207 42.6 11.3 41 9.9
2011-05-17 07:12:29 51°18.037 2°53.219 40.7 11.2 40 9.8
2011-05-17 07:12:34 51°18.049 2°53.236 42 11.2 41 9.7
2011-05-17 07:12:40 51°18.063 2°53.254 41.1 11.2 39 9.8
2011-05-17 07:12:45 51°18.075 2°53.271 41.5 11.2 40 9.5
2011-05-17 07:12:49 51°18.085 2°53.283 41.4 11.4 40 9.7
2011-05-17 07:12:54 51°18.097 2°53.299 41.2 11.4 37 9.8
2011-05-17 07:13:00 51°18.112 2°53.316 38.6 11.2 37 9.6
2011-05-17 07:13:05 51°18.124 2°53.333 39.3 11.3 39 9.8
2011-05-17 07:13:09 51°18.135 2°53.344 38.8 11.4 36 9.8
2011-05-17 07:13:14 51°18.147 2°53.361 39.9 11.4 39 9.9
2011-05-17 07:13:20 51°18.161 2°53.38 40.7 11.4 40 9.9
2011-05-17 07:13:25 51°18.174 2°53.396 41.2 11.4 38 9.9
2011-05-17 07:13:29 51°18.183 2°53.409 41.4 11.4 40 10
2011-05-17 07:13:33 51°18.193 2°53.421 40.3 11.4 36 9.8
2011-05-17 07:13:39 51°18.208 2°53.44 39.9 11.4 40 10
2011-05-17 07:13:45 51°18.223 2°53.458 40 11.3 38 9.9
2011-05-17 07:13:49 51°18.233 2°53.471 40.5 11.2 38 9.9
2011-05-17 07:13:55 51°18.248 2°53.489 39.8 11.2 37 9.7
2011-05-17 07:13:59 51°18.257 2°53.502 39.7 11.4 39 10.1
2011-05-17 07:14:04 51°18.27 2°53.516 39.2 11.3 35 10
2011-05-17 07:14:09 51°18.282 2°53.532 40.2 11.2 41 10.1
2011-05-17 07:14:14 51°18.295 2°53.546 39.3 11.1 35 9.9
2011-05-17 07:14:20 51°18.309 2°53.565 39.3 11.2 40 10
2011-05-17 07:14:25 51°18.321 2°53.581 40.4 11.4 38 10.2
2011-05-17 07:14:29 51°18.332 2°53.593 40.1 11.4 37 10.3
2011-05-17 07:14:35 51°18.346 2°53.611 39.1 11.2 37 10
2011-05-17 07:14:40 51°18.359 2°53.625 38.1 11.2 35 10.1
2011-05-17 07:14:45 51°18.372 2°53.64 38 11.4 37 10.3
2011-05-17 07:14:49 51°18.382 2°53.651 37.3 11.4 34 10.6
2011-05-17 07:14:54 51°18.395 2°53.666 36.6 11.3 36 10.1
2011-05-17 07:15:00 51°18.411 2°53.683 37.8 11.4 33 10.2
2011-05-17 07:15:05 51°18.423 2°53.698 36.7 11.2 37 10
2011-05-17 07:15:09 51°18.433 2°53.71 38.2 11.2 37 10.3
2011-05-17 07:15:13 51°18.443 2°53.722 40 11.4 42 10.2
2011-05-17 07:15:20 51°18.459 2°53.747 42.2 11.4 43 10.1
2011-05-17 07:15:25 51°18.47 2°53.765 44.3 11.3 47 10.2
2011-05-17 07:15:29 51°18.478 2°53.78 47.4 11.3 47 10.3
2011-05-17 07:15:34 51°18.489 2°53.798 48.1 11.3 51 10.3
2011-05-17 07:15:39 51°18.499 2°53.817 50.3 11.4 48 10.2
2011-05-17 07:15:45 51°18.511 2°53.84 50 11.5 49 10.4
2011-05-17 07:15:49 51°18.52 2°53.855 49.2 11.5 49 10.4
2011-05-17 07:15:53 51°18.528 2°53.871 50.2 11.5 50 10.3
2011-05-17 07:15:59 51°18.541 2°53.894 49.8 11.4 49 10.2
2011-05-17 07:16:05 51°18.553 2°53.918 50.8 11.6 51 10.5
2011-05-17 07:16:09 51°18.562 2°53.933 50.4 11.5 48 10.1
2011-05-17 07:16:15 51°18.575 2°53.956 49.5 11.6 48 10.3
2011-05-17 07:16:19 51°18.583 2°53.971 48.8 11.6 47 10.5
2011-05-17 07:16:24 51°18.594 2°53.989 47.5 11.5 46 10.4
2011-05-17 07:16:29 51°18.605 2°54.007 48.1 11.3 47 10.5
2011-05-17 07:16:34 51°18.617 2°54.025 47.3 11.4 45 10.4
2011-05-17 07:16:40 51°18.63 2°54.047 47.3 11.5 46 10.4
2011-05-17 07:16:45 51°18.641 2°54.066 46.5 11.6 48 10.6
2011-05-17 07:16:49 51°18.649 2°54.081 47.9 11.5 50 10.4
2011-05-17 07:16:54 51°18.659 2°54.101 50.9 11.4 50 10.4
2011-05-17 07:17:00 51°18.672 2°54.123 50.4 11.5 49 10.4
2011-05-17 07:17:05 51°18.682 2°54.143 50.6 11.5 49 10.4
2011-05-17 07:17:09 51°18.69 2°54.158 50.4 11.4 50 10.5
2011-05-17 07:17:14 51°18.7 2°54.178 50.8 11.4 49 10.4
2011-05-17 07:17:20 51°18.713 2°54.201 50.6 11.5 51 10.5
2011-05-17 07:17:25 51°18.724 2°54.219 50.4 11.4 46 10.5
2011-05-17 07:17:29 51°18.732 2°54.234 48.5 11.4 51 10.6
2011-05-17 07:17:33 51°18.74 2°54.25 50.6 11.4 48 10.5
2011-05-17 07:17:40 51°18.754 2°54.277 50.3 11.4 50 10.7
2011-05-17 07:17:45 51°18.764 2°54.296 50.1 11.3 51 10.6
2011-05-17 07:17:49 51°18.772 2°54.312 52.1 11.3 51 10.5
2011-05-17 07:17:54 51°18.782 2°54.331 51.9 11.2 50 10.6
2011-05-17 07:17:59 51°18.792 2°54.35 50.6 11.2 49 10.6
2011-05-17 07:18:05 51°18.805 2°54.372 50.2 11.1 48 10.4
2011-05-17 07:18:09 51°18.813 2°54.388 50.2 11.3 51 10.8
2011-05-17 07:18:13 51°18.821 2°54.402 50.2 11.3 47 10.6
2011-05-17 07:18:19 51°18.833 2°54.425 50.3 11.1 52 10.6
2011-05-17 07:18:25 51°18.845 2°54.448 51.6 11.3 50 10.8
2011-05-17 07:18:29 51°18.852 2°54.464 52 11.4 52 10.8
2011-05-17 07:18:34 51°18.862 2°54.483 51.5 11 50 10.6
2011-05-17 07:18:39 51°18.871 2°54.504 52.9 11.2 58 10.5
2011-05-17 07:18:45 51°18.881 2°54.529 56.5 11.5 57 10.7
2011-05-17 07:18:49 51°18.888 2°54.547 57.7 11.3 59 10.7
2011-05-17 07:18:55 51°18.896 2°54.574 61.1 11.4 63 10.6
2011-05-17 07:18:59 51°18.903 2°54.59 60.4 11.5 56 10.6
2011-05-17 07:19:04 51°18.91 2°54.614 60.3 11.6 65 10.7
2011-05-17 07:19:09 51°18.918 2°54.635 61.2 11.5 59 10.5
2011-05-17 07:19:15 51°18.926 2°54.663 62.3 11.5 64 10.7
2011-05-17 07:19:19 51°18.934 2°54.68 60.9 11.4 60 10.6
2011-05-17 07:19:25 51°18.942 2°54.707 61.5 11.2 63 10.7
2011-05-17 07:19:29 51°18.948 2°54.724 61.6 11.2 64 10.7
2011-05-17 07:19:34 51°18.954 2°54.747 63.6 11.3 62 10.6
2011-05-17 07:19:39 51°18.962 2°54.769 62.5 11.3 62 10.6
2011-05-17 07:19:45 51°18.97 2°54.795 62 11.1 62 10.7
2011-05-17 07:19:49 51°18.976 2°54.813 61.8 11.1 63 10.6
2011-05-17 07:19:54 51°18.983 2°54.835 61.8 11.3 64 10.6
2011-05-17 07:19:59 51°18.991 2°54.857 62.3 11.3 61 10.7
2011-05-17 07:20:05 51°18.998 2°54.884 62.7 11.2 67 10.6
2011-05-17 07:20:09 51°19.004 2°54.901 64 11.3 63 10.7
2011-05-17 07:20:14 51°19.011 2°54.924 64.1 11.5 65 10.9
2011-05-17 07:20:19 51°19.018 2°54.947 62.8 11.3 64 10.7
2011-05-17 07:20:25 51°19.026 2°54.974 64.8 11.4 65 10.6
2011-05-17 07:20:29 51°19.032 2°54.992 62.5 11.5 61 10.7
2011-05-17 07:20:34 51°19.039 2°55.014 62.1 11.4 64 10.8
2011-05-17 07:20:39 51°19.047 2°55.036 62.1 11.3 63 10.7
2011-05-17 07:20:45 51°19.055 2°55.063 63.2 11.3 62 10.6
2011-05-17 07:20:49 51°19.061 2°55.081 62.1 11.3 62 10.8
2011-05-17 07:20:55 51°19.07 2°55.107 60.4 11.2 60 10.8
2011-05-17 07:20:59 51°19.076 2°55.125 61.6 11.4 64 10.7
2011-05-17 07:21:04 51°19.084 2°55.147 61.9 11.5 59 10.9
2011-05-17 07:21:09 51°19.091 2°55.169 60.2 11.2 63 10.8
2011-05-17 07:21:14 51°19.098 2°55.191 61.3 11.1 63 10.7
2011-05-17 07:21:20 51°19.107 2°55.217 63.2 11.2 62 10.6
2011-05-17 07:21:25 51°19.113 2°55.239 62.4 11.2 64 10.5
2011-05-17 07:21:29 51°19.119 2°55.257 63.3 11.3 65 10.7
2011-05-17 07:21:35 51°19.126 2°55.285 63.8 11.2 67 10.7
2011-05-17 07:21:40 51°19.131 2°55.308 66.3 11.1 68 10.5
2011-05-17 07:21:45 51°19.139 2°55.33 66.3 11.2 62 10.6
2011-05-17 07:21:49 51°19.144 2°55.348 62.8 11.2 63 10.7
2011-05-17 07:21:54 51°19.152 2°55.369 61.2 11.2 58 10.5
2011-05-17 07:22:00 51°19.161 2°55.396 60.7 11.4 63 10.7
2011-05-17 07:22:05 51°19.17 2°55.417 60.1 11.3 59 10.6
2011-05-17 07:22:09 51°19.175 2°55.435 61.7 11.3 63 10.5
2011-05-17 07:22:13 51°19.181 2°55.453 61.8 11.4 60 10.7
2011-05-17 07:22:19 51°19.19 2°55.479 61.5 11.5 63 10.6
2011-05-17 07:22:25 51°19.2 2°55.506 61.8 11.4 59 10.5
2011-05-17 07:22:29 51°19.206 2°55.523 60.3 11.3 60 10.5
2011-05-17 07:22:34 51°19.214 2°55.545 60.1 11.4 59 10.8
2011-05-17 07:22:39 51°19.223 2°55.566 58.3 11.3 57 10.7
2011-05-17 07:22:45 51°19.232 2°55.592 58.7 11.3 62 10.7
2011-05-17 07:22:49 51°19.238 2°55.609 60.1 11.2 58 10.6
2011-05-17 07:22:55 51°19.247 2°55.636 60.1 11.4 63 10.7
2011-05-17 07:22:59 51°19.253 2°55.653 61.7 11.3 62 10.6
2011-05-17 07:23:04 51°19.26 2°55.675 62.5 11.2 63 10.5
2011-05-17 07:23:09 51°19.266 2°55.698 63.9 11.2 65 10.5
2011-05-17 07:23:15 51°19.275 2°55.725 64.7 11.2 63 10.6
2011-05-17 07:23:19 51°19.281 2°55.742 62.9 11 63 10.6
2011-05-17 07:23:25 51°19.289 2°55.768 63 11.1 64 10.7
2011-05-17 07:23:29 51°19.294 2°55.786 62.9 11.2 64 10.8
2011-05-17 07:23:35 51°19.302 2°55.813 63.9 11.2 65 10.6
2011-05-17 07:23:40 51°19.31 2°55.834 63.2 11.2 60 10.6
2011-05-17 07:23:44 51°19.315 2°55.852 61.8 11.1 64 10.5
2011-05-17 07:23:49 51°19.322 2°55.874 62.5 11.2 64 10.5
2011-05-17 07:23:55 51°19.331 2°55.901 62.4 11.3 63 10.6
2011-05-17 07:24:00 51°19.337 2°55.923 64 11.2 66 10.6
2011-05-17 07:24:05 51°19.344 2°55.944 63.2 11.1 60 10.5
2011-05-17 07:24:09 51°19.349 2°55.963 62.6 11.3 65 10.6
2011-05-17 07:24:15 51°19.36 2°55.987 60.8 11.2 55 10.5
2011-05-17 07:24:20 51°19.366 2°56.01 60.6 11 64 10.6
2011-05-17 07:24:25 51°19.375 2°56.03 61.1 11.1 59 10.6
2011-05-17 07:24:29 51°19.381 2°56.048 60.3 11.3 60 10.5
2011-05-17 07:24:33 51°19.387 2°56.065 59.4 11 59 10.7
2011-05-17 07:24:39 51°19.396 2°56.09 59.9 10.8 62 10.5
2011-05-17 07:24:45 51°19.404 2°56.116 61.9 11.2 63 10.4
2011-05-17 07:24:49 51°19.411 2°56.133 61 11.3 57 10.6
2011-05-17 07:24:55 51°19.419 2°56.16 60.8 11.2 67 10.5
2011-05-17 07:24:59 51°19.425 2°56.177 62.8 11 57 10.5
2011-05-17 07:25:05 51°19.435 2°56.202 59.9 11.1 60 10.4
2011-05-17 07:25:09 51°19.441 2°56.219 59.8 11.1 59 10.6
2011-05-17 07:25:14 51°19.45 2°56.239 57.8 11.2 56 10.5
2011-05-17 07:25:20 51°19.459 2°56.265 58.9 11.3 61 10.5
2011-05-17 07:25:24 51°19.465 2°56.283 60.1 11.3 63 10.6
2011-05-17 07:25:29 51°19.472 2°56.305 61.6 11.2 62 10.5
2011-05-17 07:25:35 51°19.48 2°56.333 64.2 11.3 68 10.3
2011-05-17 07:25:40 51°19.487 2°56.355 65.2 11.4 64 10.5
2011-05-17 07:25:44 51°19.491 2°56.374 65.4 11.4 71 10.6
2011-05-17 07:25:49 51°19.496 2°56.398 68.9 11.2 72 10.6
2011-05-17 07:25:54 51°19.5 2°56.422 71.8 11.3 76 10.6
2011-05-17 07:26:00 51°19.505 2°56.451 73.1 11.1 74 10.5
2011-05-17 07:26:05 51°19.508 2°56.475 74.2 11.2 78 10.6
2011-05-17 07:26:09 51°19.511 2°56.494 74.8 11.1 77 10.5
2011-05-17 07:26:14 51°19.513 2°56.519 77.3 11.2 81 10.5
2011-05-17 07:26:20 51°19.517 2°56.548 76.6 11.3 78 10.5
2011-05-17 07:26:25 51°19.519 2°56.573 78.2 11.3 82 10.3
2011-05-17 07:26:29 51°19.522 2°56.592 78.1 11.3 78 10.4
2011-05-17 07:26:34 51°19.524 2°56.617 78.2 11.3 81 10.4
2011-05-17 07:26:40 51°19.528 2°56.646 77.2 11.4 78 10.3
2011-05-17 07:26:45 51°19.531 2°56.672 77.8 11.5 79 10.3
2011-05-17 07:26:49 51°19.534 2°56.691 76.5 11.4 77 10.4
2011-05-17 07:26:53 51°19.536 2°56.711 75.9 11.3 79 10.3
2011-05-17 07:26:59 51°19.54 2°56.741 77 11.4 79 10.3
2011-05-17 07:27:05 51°19.544 2°56.77 77 11.3 78 10.4
2011-05-17 07:27:09 51°19.546 2°56.79 77.3 11.2 80 10.2
2011-05-17 07:27:15 51°19.55 2°56.819 77.7 11.3 77 10.2
2011-05-17 07:27:19 51°19.553 2°56.839 75.9 11.4 77 10.2
2011-05-17 07:27:25 51°19.557 2°56.868 75.5 11.3 77 10.3
2011-05-17 07:27:29 51°19.559 2°56.887 75.5 11.1 80 10.3
2011-05-17 07:27:34 51°19.562 2°56.912 76.8 11.2 79 10.3
2011-05-17 07:27:40 51°19.565 2°56.941 77.8 11.4 81 10.2
2011-05-17 07:27:44 51°19.567 2°56.961 78.9 11.4 81 10.2
2011-05-17 07:27:49 51°19.57 2°56.986 78.5 11.3 78 10.3
2011-05-17 07:27:55 51°19.575 2°57.015 76.1 11.2 76 10.2
2011-05-17 07:28:00 51°19.578 2°57.039 75.2 11.3 76 10.3
2011-05-17 07:28:05 51°19.583 2°57.063 73.9 11.3 75 10.2
2011-05-17 07:28:09 51°19.585 2°57.082 74.3 11.4 76 10.2
2011-05-17 07:28:14 51°19.589 2°57.107 74.5 11.2 75 10.1
2011-05-17 07:28:20 51°19.594 2°57.135 74.1 11.1 75 10.3
2011-05-17 07:28:25 51°19.598 2°57.159 73.6 11 74 10.1
2011-05-17 07:28:29 51°19.601 2°57.177 74.3 11.1 74 10.1
2011-05-17 07:28:34 51°19.606 2°57.201 72.3 11.2 72 10.1
2011-05-17 07:28:40 51°19.612 2°57.229 71.3 11 73 10.3
2011-05-17 07:28:45 51°19.615 2°57.252 71.3 10.9 76 10.2
2011-05-17 07:28:49 51°19.618 2°57.271 75 10.9 78 10.3
2011-05-17 07:28:54 51°19.622 2°57.294 75.1 10.9 76 10.1
2011-05-17 07:29:00 51°19.626 2°57.323 74.8 11 76 10.2
2011-05-17 07:29:05 51°19.63 2°57.346 74.4 11.1 75 10.1
2011-05-17 07:29:09 51°19.633 2°57.365 74.1 11 76 10.2
2011-05-17 07:29:13 51°19.636 2°57.384 74.9 11.1 76 10.2
2011-05-17 07:29:19 51°19.641 2°57.413 74.4 11.1 75 10.2
2011-05-17 07:29:25 51°19.646 2°57.441 73.9 11.2 74 10.1
2011-05-17 07:29:29 51°19.65 2°57.46 72.5 11.3 72 10.1
2011-05-17 07:29:35 51°19.655 2°57.489 71.4 11.2 73 10.1
2011-05-17 07:29:39 51°19.66 2°57.507 71.3 11.2 70 10
2011-05-17 07:29:45 51°19.666 2°57.535 69.8 11.1 70 10.1
2011-05-17 07:29:49 51°19.67 2°57.554 69.7 11.2 71 10
2011-05-17 07:29:54 51°19.674 2°57.578 70.7 11.3 72 10.1
2011-05-17 07:30:00 51°19.681 2°57.606 70.3 11.3 71 10
2011-05-17 07:30:05 51°19.686 2°57.63 70.8 11.3 72 10.2
2011-05-17 07:30:09 51°19.69 2°57.648 70.5 11.2 71 9.8
2011-05-17 07:30:14 51°19.694 2°57.672 71.7 11.2 71 9.9
2011-05-17 07:30:20 51°19.701 2°57.7 69.8 11.3 71 10
2011-05-17 07:30:25 51°19.705 2°57.724 71.1 11.3 74 9.9
2011-05-17 07:30:29 51°19.708 2°57.744 72.6 11.2 74 10
2011-05-17 07:30:34 51°19.713 2°57.768 73.4 11.3 75 9.9
2011-05-17 07:30:40 51°19.718 2°57.797 73.4 11.3 75 10
2011-05-17 07:30:45 51°19.721 2°57.821 73.5 11.3 76 9.9
2011-05-17 07:30:49 51°19.724 2°57.84 74.7 11.3 78 9.9
2011-05-17 07:30:53 51°19.726 2°57.86 76.7 11.5 78 9.9
2011-05-17 07:31:00 51°19.732 2°57.895 76.3 11.6 76 10
2011-05-17 07:31:05 51°19.734 2°57.921 75.6 11.6 82 9.9
2011-05-17 07:31:09 51°19.737 2°57.941 78.2 11.5 78 9.8
2011-05-17 07:31:14 51°19.74 2°57.965 77.5 11.4 80 9.9
2011-05-17 07:31:19 51°19.743 2°57.99 77.8 11.4 79 9.8
2011-05-17 07:31:25 51°19.746 2°58.02 78.1 11.5 79 9.7
2011-05-17 07:31:29 51°19.748 2°58.04 78.2 11.4 78 9.8
2011-05-17 07:31:33 51°19.752 2°58.059 76.7 11.4 77 9.7
2011-05-17 07:31:39 51°19.756 2°58.089 76.5 11.4 76 9.8
2011-05-17 07:31:45 51°19.761 2°58.119 75.1 11.5 76 9.8
2011-05-17 07:31:49 51°19.764 2°58.139 75.2 11.6 77 9.8
2011-05-17 07:31:54 51°19.768 2°58.164 75.1 11.6 75 9.7
2011-05-17 07:31:59 51°19.771 2°58.188 74.9 11.4 76 9.6
2011-05-17 07:32:05 51°19.776 2°58.217 75 11.3 76 9.5
2011-05-17 07:32:09 51°19.778 2°58.237 75.8 11.6 79 9.6
2011-05-17 07:32:15 51°19.783 2°58.268 76.6 11.6 77 9.6
2011-05-17 07:32:19 51°19.785 2°58.288 77.1 11.4 80 9.7
2011-05-17 07:32:24 51°19.788 2°58.312 77.8 11.1 79 9.6
2011-05-17 07:32:29 51°19.79 2°58.336 78.6 11.2 81 9.5
2011-05-17 07:32:35 51°19.794 2°58.365 78.8 11.3 79 9.5
2011-05-17 07:32:39 51°19.796 2°58.385 78 11.3 78 9.5
2011-05-17 07:32:45 51°19.8 2°58.414 77 11.3 78 9.7
2011-05-17 07:32:49 51°19.803 2°58.433 76.4 11 73 9.5
2011-05-17 07:32:55 51°19.808 2°58.461 73.6 11 75 9.5
2011-05-17 07:33:00 51°19.812 2°58.485 74.6 11 75 9.4
2011-05-17 07:33:05 51°19.817 2°58.509 73.8 11.3 73 9.5
2011-05-17 07:33:09 51°19.82 2°58.528 73.3 11.2 74 9.6
2011-05-17 07:33:15 51°19.826 2°58.556 71.3 11 72 9.5
2011-05-17 07:33:20 51°19.829 2°58.579 72.4 10.9 76 9.3
2011-05-17 07:33:25 51°19.834 2°58.602 73.7 10.9 72 9.4
2011-05-17 07:33:29 51°19.837 2°58.621 73.1 11 76 9.4
2011-05-17 07:33:33 51°19.84 2°58.64 74.6 11.1 73 9.3
2011-05-17 07:33:40 51°19.846 2°58.673 73.3 11 73 9.5
2011-05-17 07:33:45 51°19.851 2°58.696 73.3 10.9 73 9.4
2011-05-17 07:33:49 51°19.855 2°58.714 71.4 11 70 9.3
2011-05-17 07:33:54 51°19.86 2°58.737 70.5 10.9 71 9.4
2011-05-17 07:33:59 51°19.865 2°58.759 70.1 10.7 71 9.3
2011-05-17 07:34:05 51°19.87 2°58.787 71.5 10.9 74 9.5
2011-05-17 07:34:09 51°19.874 2°58.806 72.1 11.1 70 9.4
2011-05-17 07:34:15 51°19.879 2°58.834 72.2 11 76 9.3
2011-05-17 07:34:19 51°19.882 2°58.852 73.8 10.9 73 9.3
2011-05-17 07:34:24 51°19.886 2°58.876 74.1 11 75 9.2
2011-05-17 07:34:29 51°19.89 2°58.899 74.1 11 74 9.2
2011-05-17 07:34:34 51°19.894 2°58.923 73.5 11.1 75 9.3
2011-05-17 07:34:40 51°19.898 2°58.952 74.3 11.1 77 9.3
2011-05-17 07:34:45 51°19.902 2°58.976 76.1 11.1 77 9.2
2011-05-17 07:34:49 51°19.905 2°58.995 76.4 11.2 76 9.2
2011-05-17 07:34:54 51°19.908 2°59.019 76.1 11.2 76 9.2
2011-05-17 07:35:00 51°19.912 2°59.048 75.3 11.3 79 9.2
2011-05-17 07:35:05 51°19.916 2°59.072 77 11.1 77 9.2
2011-05-17 07:35:09 51°19.917 2°59.092 77.3 11.1 81 9.1
2011-05-17 07:35:14 51°19.92 2°59.116 79.9 11.2 77 9.2
2011-05-17 07:35:20 51°19.925 2°59.145 76.6 11.3 76 9.1
2011-05-17 07:35:25 51°19.929 2°59.169 75.9 11.2 76 9.2
2011-05-17 07:35:29 51°19.933 2°59.187 74.2 11.1 70 9
2011-05-17 07:35:33 51°19.937 2°59.206 72.7 11 75 9.2
2011-05-17 07:35:40 51°19.942 2°59.239 73.2 11.1 73 9.2
2011-05-17 07:35:45 51°19.947 2°59.263 73.4 11.3 74 9.1
2011-05-17 07:35:49 51°19.95 2°59.282 74.5 11.2 75 9.3
2011-05-17 07:35:53 51°19.953 2°59.301 74.1 10.9 75 9.1
2011-05-17 07:35:59 51°19.958 2°59.329 75.4 11 75 9
2011-05-17 07:36:05 51°19.963 2°59.357 74.5 11.2 73 9
2011-05-17 07:36:09 51°19.966 2°59.377 74 11.2 75 9.1
2011-05-17 07:36:14 51°19.972 2°59.4 73.1 11 71 9.1
2011-05-17 07:36:19 51°19.975 2°59.423 73.2 11 77 9.2
2011-05-17 07:36:24 51°19.979 2°59.447 74.3 11 74 9.1
2011-05-17 07:36:29 51°19.982 2°59.47 75.1 10.9 78 9
2011-05-17 07:36:35 51°19.986 2°59.498 77.1 10.8 78 9.1
2011-05-17 07:36:39 51°19.989 2°59.517 76.3 10.9 76 8.9
2011-05-17 07:36:44 51°19.993 2°59.541 75.8 10.9 74 9
2011-05-17 07:36:49 51°19.997 2°59.564 74.5 10.9 77 9.1
2011-05-17 07:36:54 51°20.001 2°59.587 74.6 10.8 72 9
2011-05-17 07:36:59 51°20.005 2°59.61 73.5 10.9 75 9
2011-05-17 07:37:05 51°20.01 2°59.637 73.2 10.9 72 8.9
2011-05-17 07:37:09 51°20.013 2°59.656 73.4 10.9 74 8.9
2011-05-17 07:37:15 51°20.019 2°59.684 73.6 10.8 72 8.8
2011-05-17 07:37:20 51°20.024 2°59.707 72.7 11 72 9
2011-05-17 07:37:25 51°20.029 2°59.729 71.1 11 70 9
2011-05-17 07:37:29 51°20.033 2°59.748 70.9 10.9 72 8.9
2011-05-17 07:37:34 51°20.038 2°59.77 71 10.8 69 9
2011-05-17 07:37:40 51°20.044 2°59.797 70.6 10.8 71 8.7
2011-05-17 07:37:45 51°20.049 2°59.82 71.2 10.8 71 9
2011-05-17 07:37:49 51°20.052 2°59.838 70.7 10.8 72 9
2011-05-17 07:37:53 51°20.056 2°59.856 72.1 10.7 70 8.8
2011-05-17 07:38:00 51°20.064 2°59.887 70.2 10.8 67 8.9
2011-05-17 07:38:05 51°20.068 2°59.91 69.8 10.9 73 8.9
2011-05-17 07:38:09 51°20.072 2°59.928 71.4 11 73 9
2011-05-17 07:38:13 51°20.075 2°59.947 72.8 10.8 76 8.8
2011-05-17 07:38:19 51°20.078 2°59.975 75.9 10.8 79 8.9
2011-05-17 07:38:25 51°20.084 3°0.003 75.6 10.8 74 8.8
2011-05-17 07:38:29 51°20.086 3°0.021 75.6 10.8 79 8.9
2011-05-17 07:38:34 51°20.09 3°0.045 75.7 10.8 75 9
2011-05-17 07:38:39 51°20.093 3°0.068 75.3 10.8 79 8.8
2011-05-17 07:38:44 51°20.095 3°0.091 77.3 10.9 78 8.7
2011-05-17 07:38:49 51°20.099 3°0.115 77.3 10.9 78 8.9
2011-05-17 07:38:54 51°20.101 3°0.139 78.1 10.8 81 8.7
2011-05-17 07:39:00 51°20.104 3°0.167 79.8 10.8 79 8.9
2011-05-17 07:39:05 51°20.108 3°0.19 76.7 10.7 77 8.8
2011-05-17 07:39:09 51°20.11 3°0.209 76.3 10.6 76 8.9
2011-05-17 07:39:14 51°20.115 3°0.231 74.5 10.7 73 8.7
2011-05-17 07:39:19 51°20.12 3°0.254 72.6 10.8 69 8.8
2011-05-17 07:39:25 51°20.126 3°0.28 69.8 10.7 70 9
2011-05-17 07:39:29 51°20.13 3°0.298 69.6 10.4 69 8.8
2011-05-17 07:39:35 51°20.136 3°0.324 70.5 10.4 72 8.7
2011-05-17 07:39:40 51°20.141 3°0.345 70.6 10.4 69 8.8
2011-05-17 07:39:45 51°20.146 3°0.368 70.3 10.6 71 8.7
2011-05-17 07:39:49 51°20.149 3°0.386 71.4 10.6 72 8.9
2011-05-17 07:39:54 51°20.155 3°0.407 69.1 10.4 66 8.8
2011-05-17 07:40:00 51°20.16 3°0.433 69 10.5 71 8.7
2011-05-17 07:40:05 51°20.166 3°0.454 69.1 10.5 66 8.7
2011-05-17 07:40:09 51°20.171 3°0.472 67.8 10.6 68 9
2011-05-17 07:40:13 51°20.175 3°0.489 67.2 10.5 68 8.8
2011-05-17 07:40:20 51°20.183 3°0.519 67.9 10.5 66 8.8
2011-05-17 07:40:25 51°20.189 3°0.539 66.6 10.5 67 8.8
2011-05-17 07:40:29 51°20.193 3°0.558 67.6 10.5 68 8.7
2011-05-17 07:40:34 51°20.199 3°0.579 68.3 10.5 67 8.8
2011-05-17 07:40:39 51°20.204 3°0.601 68.5 10.6 71 8.6
2011-05-17 07:40:45 51°20.21 3°0.627 70 10.7 68 9
2011-05-17 07:40:49 51°20.215 3°0.645 67.1 10.7 69 8.8
2011-05-17 07:40:53 51°20.218 3°0.663 69.9 10.7 73 8.7
2011-05-17 07:40:59 51°20.224 3°0.69 70.9 10.8 71 8.6
2011-05-17 07:41:05 51°20.229 3°0.717 71.8 10.7 73 8.8
2011-05-17 07:41:09 51°20.233 3°0.735 71.1 10.7 73 8.9
2011-05-17 07:41:15 51°20.239 3°0.762 72.2 10.7 71 8.8
2011-05-17 07:41:19 51°20.243 3°0.78 71.3 10.7 71 8.8
2011-05-17 07:41:25 51°20.248 3°0.807 70.9 10.7 72 8.8
2011-05-17 07:41:29 51°20.252 3°0.825 71 10.7 71 8.8
2011-05-17 07:41:35 51°20.259 3°0.852 70.7 10.6 69 8.7
2011-05-17 07:41:39 51°20.263 3°0.869 69.9 10.7 71 8.8
2011-05-17 07:41:45 51°20.269 3°0.896 70 10.9 68 8.8
2011-05-17 07:41:49 51°20.274 3°0.913 67.3 10.8 66 8.8
2011-05-17 07:41:55 51°20.281 3°0.939 67.3 10.6 67 8.6
2011-05-17 07:42:00 51°20.288 3°0.96 66.4 10.6 63 8.6
2011-05-17 07:42:05 51°20.294 3°0.982 65 10.7 64 8.7
2011-05-17 07:42:09 51°20.3 3°0.998 63.7 10.8 63 8.6
2011-05-17 07:42:15 51°20.307 3°1.025 64.8 10.9 66 8.5
2011-05-17 07:42:20 51°20.314 3°1.047 65.3 11 66 8.8
2011-05-17 07:42:25 51°20.319 3°1.07 65.9 10.9 68 9.1
2011-05-17 07:42:29 51°20.324 3°1.087 67.7 10.9 69 8.8
2011-05-17 07:42:34 51°20.329 3°1.11 69 11 70 8.8
2011-05-17 07:42:40 51°20.335 3°1.137 69.6 10.9 71 8.7
2011-05-17 07:42:45 51°20.34 3°1.16 70.8 10.9 71 8.7
2011-05-17 07:42:49 51°20.344 3°1.178 70.7 11 71 8.9
2011-05-17 07:42:55 51°20.35 3°1.206 70.6 10.9 71 8.8
2011-05-17 07:42:59 51°20.354 3°1.224 70.5 10.8 68 8.7
2011-05-17 07:43:04 51°20.359 3°1.246 68.8 10.7 71 8.8
2011-05-17 07:43:09 51°20.365 3°1.268 68.5 10.6 68 8.7
2011-05-17 07:43:14 51°20.371 3°1.289 67.2 10.7 66 8.6
2011-05-17 07:43:19 51°20.376 3°1.312 68.2 10.8 70 8.8
2011-05-17 07:43:24 51°20.382 3°1.335 68.5 10.8 71 8.5
2011-05-17 07:43:29 51°20.386 3°1.357 70.6 10.7 70 8.6
2011-05-17 07:43:34 51°20.39 3°1.38 71.4 10.7 75 8.7
2011-05-17 07:43:40 51°20.396 3°1.407 71.7 10.8 69 8.5
2011-05-17 07:43:45 51°20.4 3°1.431 71.6 11 76 8.6
2011-05-17 07:43:49 51°20.404 3°1.449 71.7 10.9 71 8.7
2011-05-17 07:43:55 51°20.409 3°1.477 71.9 11 74 8.6
2011-05-17 07:44:00 51°20.415 3°1.499 71.2 10.8 69 8.6
2011-05-17 07:44:05 51°20.419 3°1.522 70.8 10.7 73 8.5
2011-05-17 07:44:09 51°20.423 3°1.54 71.2 10.9 70 8.7
2011-05-17 07:44:14 51°20.428 3°1.562 70.1 10.7 71 8.6
2011-05-17 07:44:20 51°20.434 3°1.589 70.7 10.8 70 8.5
2011-05-17 07:44:25 51°20.441 3°1.611 69.5 11 66 8.4
2011-05-17 07:44:29 51°20.446 3°1.629 67 10.9 65 8.5
2011-05-17 07:44:33 51°20.45 3°1.647 67.6 10.8 72 8.5
2011-05-17 07:44:40 51°20.457 3°1.678 69.4 10.8 68 8.5
2011-05-17 07:44:45 51°20.461 3°1.702 69.8 10.9 74 8.5
2011-05-17 07:44:49 51°20.466 3°1.719 70.6 10.8 69 8.6
2011-05-17 07:44:54 51°20.47 3°1.742 70.4 10.8 73 8.6
2011-05-17 07:44:59 51°20.475 3°1.765 70.7 10.8 71 8.5
2011-05-17 07:45:05 51°20.481 3°1.792 71.1 10.9 70 8.5
2011-05-17 07:45:09 51°20.485 3°1.81 70.6 10.9 71 8.3
2011-05-17 07:45:15 51°20.491 3°1.838 71.5 10.9 70 8.6
2011-05-17 07:45:19 51°20.496 3°1.855 69.1 10.8 71 8.5
2011-05-17 07:45:24 51°20.499 3°1.878 71 10.8 70 8.6
2011-05-17 07:45:29 51°20.505 3°1.901 69.3 10.9 70 8.6
2011-05-17 07:45:34 51°20.511 3°1.924 68.8 10.9 70 8.6
2011-05-17 07:45:40 51°20.517 3°1.951 69 10.9 71 8.5
2011-05-17 07:45:44 51°20.52 3°1.969 70 11 71 8.4
2011-05-17 07:45:49 51°20.525 3°1.993 70.7 11.1 73 8.5
2011-05-17 07:45:54 51°20.53 3°2.016 70.9 11.2 71 8.5
2011-05-17 07:46:00 51°20.536 3°2.045 71.2 11.2 73 8.6
2011-05-17 07:46:05 51°20.54 3°2.068 71.1 11 73 8.5
2011-05-17 07:46:09 51°20.543 3°2.087 72.8 11 77 8.7
2011-05-17 07:46:15 51°20.548 3°2.115 73.2 11 74 8.6
2011-05-17 07:46:20 51°20.552 3°2.139 74.1 11.1 74 8.5
2011-05-17 07:46:25 51°20.556 3°2.162 72.8 11 73 8.6
2011-05-17 07:46:29 51°20.56 3°2.18 71.9 10.9 72 8.6
2011-05-17 07:46:34 51°20.565 3°2.203 71.7 11 71 8.8
2011-05-17 07:46:40 51°20.571 3°2.23 70.4 10.8 70 8.9
2011-05-17 07:46:45 51°20.576 3°2.253 69.9 10.9 72 8.7
2011-05-17 07:46:49 51°20.581 3°2.27 69.6 10.8 64 8.8
2011-05-17 07:46:53 51°20.587 3°2.287 64.8 10.8 65 8.6
2011-05-17 07:47:00 51°20.596 3°2.318 65.5 10.9 64 8.9
2011-05-17 07:47:05 51°20.602 3°2.34 63.5 10.9 66 9
2011-05-17 07:47:09 51°20.607 3°2.357 65.4 10.7 63 8.7
2011-05-17 07:47:14 51°20.614 3°2.378 64.8 10.8 63 8.8
2011-05-17 07:47:19 51°20.622 3°2.399 62.5 10.8 61 8.7
2011-05-17 07:47:25 51°20.63 3°2.424 62.6 10.7 61 8.9
2011-05-17 07:47:29 51°20.636 3°2.441 61.1 11 64 8.7
2011-05-17 07:47:34 51°20.642 3°2.464 63.4 11 60 8.9
2011-05-17 07:47:40 51°20.652 3°2.488 61.1 10.9 62 9
2011-05-17 07:47:45 51°20.658 3°2.511 63.5 10.9 65 9
2011-05-17 07:47:49 51°20.664 3°2.528 64.1 11.1 63 9
2011-05-17 07:47:54 51°20.67 3°2.55 64.5 10.9 65 9
2011-05-17 07:47:59 51°20.677 3°2.571 64.6 11 62 8.9
2011-05-17 07:48:04 51°20.684 3°2.593 63.2 11 63 8.9
2011-05-17 07:48:09 51°20.692 3°2.615 62.5 11.1 62 8.8
2011-05-17 07:48:14 51°20.7 3°2.637 62.3 11.1 59 9.2
2011-05-17 07:48:19 51°20.707 3°2.658 60.3 11.2 64 9
2011-05-17 07:48:25 51°20.715 3°2.685 63.1 11.1 62 8.9
2011-05-17 07:48:29 51°20.721 3°2.703 62.4 11.3 64 9.1
2011-05-17 07:48:35 51°20.73 3°2.728 63.2 10.9 62 9
2011-05-17 07:48:40 51°20.736 3°2.751 63.4 11.2 67 9
2011-05-17 07:48:45 51°20.743 3°2.773 64.7 11.3 60 9
2011-05-17 07:48:49 51°20.749 3°2.791 62.5 11.1 64 9
2011-05-17 07:48:54 51°20.755 3°2.813 62.9 11.1 66 9
2011-05-17 07:49:00 51°20.763 3°2.84 65 11.2 64 9
2011-05-17 07:49:05 51°20.769 3°2.863 64.7 11.1 68 9.1
2011-05-17 07:49:09 51°20.773 3°2.882 67.2 11.2 69 9.1
2011-05-17 07:49:13 51°20.778 3°2.9 67.3 11.3 68 9
2011-05-17 07:49:20 51°20.786 3°2.932 67.6 11.1 69 9.1
2011-05-17 07:49:25 51°20.792 3°2.955 68.2 11 68 9
2011-05-17 07:49:29 51°20.796 3°2.974 67.5 11.3 69 9
2011-05-17 07:49:34 51°20.803 3°2.997 66.9 11.1 64 9.1
2011-05-17 07:49:39 51°20.809 3°3.019 64.8 11 69 9.2
2011-05-17 07:49:45 51°20.816 3°3.046 66.9 11.1 67 9.2
2011-05-17 07:49:49 51°20.822 3°3.063 64.8 11.1 61 9.1
2011-05-17 07:49:54 51°20.828 3°3.086 63 11.1 68 9.3
2011-05-17 07:49:59 51°20.834 3°3.109 65.3 11.1 68 9.2
2011-05-17 07:50:05 51°20.841 3°3.136 66.7 11.3 66 9.1
2011-05-17 07:50:09 51°20.847 3°3.155 65.6 11.3 65 9.2
2011-05-17 07:50:14 51°20.854 3°3.177 64.3 11.3 63 9.3
2011-05-17 07:50:19 51°20.861 3°3.199 63.2 11.1 61 9
2011-05-17 07:50:24 51°20.868 3°3.221 62.3 11.2 62 9.1
2011-05-17 07:50:29 51°20.876 3°3.243 61.8 11.4 61 8.8
2011-05-17 07:50:34 51°20.884 3°3.265 60.7 11.4 60 9.3
2011-05-17 07:50:39 51°20.891 3°3.287 60.6 11.3 62 9.1
2011-05-17 07:50:45 51°20.9 3°3.314 61.9 11.4 63 9.3
2011-05-17 07:50:49 51°20.905 3°3.332 62.8 11.4 64 9.4
2011-05-17 07:50:55 51°20.913 3°3.359 63.3 11.3 66 9.5
2011-05-17 07:51:00 51°20.919 3°3.383 65.4 11.3 70 9.3
2011-05-17 07:51:05 51°20.925 3°3.406 68 11.3 67 9.2
2011-05-17 07:51:09 51°20.93 3°3.424 65.8 11.3 64 9.3
2011-05-17 07:51:14 51°20.936 3°3.447 64.7 11.3 68 9.4
2011-05-17 07:51:20 51°20.944 3°3.475 65.5 11.3 66 9.2
2011-05-17 07:51:25 51°20.949 3°3.498 67.6 11.3 70 9.2
2011-05-17 07:51:29 51°20.954 3°3.516 67.5 11.2 67 9.4
2011-05-17 07:51:33 51°20.958 3°3.535 68.3 11.4 70 9.3
2011-05-17 07:51:39 51°20.966 3°3.562 67.8 11.2 63 9.2
2011-05-17 07:51:45 51°20.972 3°3.59 66 11.2 69 9.3
2011-05-17 07:51:49 51°20.978 3°3.608 66.8 11.1 63 9.3
2011-05-17 07:51:55 51°20.986 3°3.635 64.2 11.4 65 9.5
2011-05-17 07:51:59 51°20.991 3°3.653 64.6 11.2 65 9.5
2011-05-17 07:52:05 51°20.998 3°3.68 65.3 11.2 68 9.5
2011-05-17 07:52:09 51°21.004 3°3.698 66.3 11.1 64 9.4
2011-05-17 07:52:14 51°21.01 3°3.72 65.3 11.1 65 9.4
2011-05-17 07:52:19 51°21.016 3°3.742 64.9 11.1 66 9.4
2011-05-17 07:52:24 51°21.023 3°3.765 65.3 11.2 66 9.3
2011-05-17 07:52:29 51°21.029 3°3.788 65.5 11.2 65 9.4
2011-05-17 07:52:34 51°21.036 3°3.81 65.4 11.1 63 9.4
2011-05-17 07:52:40 51°21.044 3°3.836 64.1 11.1 65 9.4
2011-05-17 07:52:45 51°21.051 3°3.858 63.5 11.1 61 9.2
2011-05-17 07:52:49 51°21.057 3°3.875 62.8 11.1 66 9.3
2011-05-17 07:52:54 51°21.063 3°3.898 64.2 11.2 64 9.4
2011-05-17 07:52:59 51°21.07 3°3.92 64 11.2 63 9.3
2011-05-17 07:53:05 51°21.078 3°3.947 64.3 11.2 66 9.5
2011-05-17 07:53:09 51°21.083 3°3.965 65.7 11.2 65 9.5
2011-05-17 07:53:14 51°21.088 3°3.988 66.1 11.3 69 9.5
2011-05-17 07:53:20 51°21.096 3°4.015 68.1 11.2 65 9.6
2011-05-17 07:53:25 51°21.102 3°4.038 66.1 11.3 66 9.4
2011-05-17 07:53:29 51°21.107 3°4.056 66 11.3 66 9.6
2011-05-17 07:53:33 51°21.113 3°4.074 64.7 11.3 65 9.6
2011-05-17 07:53:40 51°21.122 3°4.106 66 11.4 68 9.7
2011-05-17 07:53:45 51°21.128 3°4.129 66.3 11.4 67 9.6
2011-05-17 07:53:49 51°21.133 3°4.148 67.9 11.3 66 9.5
2011-05-17 07:53:54 51°21.139 3°4.171 66.8 11.5 66 9.6
2011-05-17 07:53:59 51°21.146 3°4.193 65.3 11.3 63 9.6
2011-05-17 07:54:05 51°21.153 3°4.221 65.1 11.3 68 9.8
2011-05-17 07:54:09 51°21.159 3°4.239 66.3 11.3 65 9.8
2011-05-17 07:54:13 51°21.164 3°4.258 66.4 11.5 68 9.8
2011-05-17 07:54:19 51°21.171 3°4.286 68.3 11.4 69 9.8
2011-05-17 07:54:24 51°21.177 3°4.31 69 11.4 68 9.7
2011-05-17 07:54:29 51°21.182 3°4.333 68.6 11.3 67 9.7